Time;durP1;ratioP1;P1;durP2;ratioP2;P2;SDS_P1;SDS_P2;PMS_P1;PMS_P2;Temp;Humidity;BMP_temperature;BMP_pressure;BME280_temperature;BME280_humidity;BME280_pressure;Samples;Min_cycle;Max_cycle;Signal;HPM_P1;HPM_P2
2023/03/12 00:01:39;;;;;;;7.32;2.03;;;;;;;-0.48;100.00;100345.53;5012998;28;20063;-72
2023/03/12 00:04:04;;;;;;;4.68;1.48;;;;;;;-0.50;100.00;100353.50;5003790;28;20041;-74
2023/03/12 00:06:30;;;;;;;5.63;1.17;;;;;;;-0.53;100.00;100364.22;5004015;28;20072;-71
2023/03/12 00:08:56;;;;;;;14.15;2.67;;;;;;;-0.64;100.00;100364.06;5014017;28;20162;-71
2023/03/12 00:11:21;;;;;;;8.02;1.73;;;;;;;-0.60;100.00;100365.56;5003882;28;20038;-73
2023/03/12 00:13:52;;;;;;;8.18;1.70;;;;;;;-0.59;100.00;100382.94;5004236;28;20119;-73
2023/03/12 00:16:18;;;;;;;8.07;1.23;;;;;;;-0.67;100.00;100387.88;5004380;28;20042;-72
2023/03/12 00:18:46;;;;;;;5.47;1.40;;;;;;;-0.70;100.00;100394.16;5005128;28;20133;-72
2023/03/12 00:21:11;;;;;;;14.70;2.92;;;;;;;-0.71;100.00;100400.31;5005721;28;20858;-74
2023/03/12 00:23:37;;;;;;;6.38;1.38;;;;;;;-0.66;100.00;100407.88;5004504;28;20034;-74
2023/03/12 00:26:05;;;;;;;8.77;1.90;;;;;;;-0.62;100.00;100425.13;5005489;28;20882;-72
2023/03/12 00:28:31;;;;;;;5.18;2.13;;;;;;;-0.66;100.00;100415.75;5018881;28;20034;-73
2023/03/12 00:30:57;;;;;;;7.40;2.25;;;;;;;-0.62;100.00;100419.88;5004235;28;21017;-73
2023/03/12 00:33:28;;;;;;;7.28;1.88;;;;;;;-0.76;100.00;100415.50;5020989;28;20029;-72
2023/03/12 00:35:54;;;;;;;6.25;1.85;;;;;;;-0.71;100.00;100436.19;5020646;28;20526;-73
2023/03/12 00:38:21;;;;;;;7.25;1.98;;;;;;;-0.80;100.00;100434.16;5020336;28;20049;-72
2023/03/12 00:40:47;;;;;;;8.88;2.95;;;;;;;-0.83;100.00;100436.97;5005416;28;20475;-75
2023/03/12 00:43:13;;;;;;;9.50;1.77;;;;;;;-0.91;100.00;100438.31;5020639;28;20072;-72
2023/03/12 00:45:38;;;;;;;4.13;1.23;;;;;;;-0.91;100.00;100434.84;5004119;28;20030;-72
2023/03/12 00:48:04;;;;;;;8.75;2.88;;;;;;;-0.93;100.00;100442.78;5004021;28;20048;-72
2023/03/12 00:50:29;;;;;;;11.82;2.00;;;;;;;-1.01;100.00;100438.97;5004485;28;20037;-74
2023/03/12 00:52:54;;;;;;;17.77;3.10;;;;;;;-1.04;100.00;100436.53;5007434;28;20033;-71
2023/03/12 00:55:20;;;;;;;12.27;1.90;;;;;;;-1.07;100.00;100440.19;5007719;28;20038;-72
2023/03/12 00:57:45;;;;;;;11.88;2.70;;;;;;;-1.04;100.00;100440.00;5007399;28;20018;-71
2023/03/12 01:00:12;;;;;;;7.07;2.10;;;;;;;-1.10;100.00;100453.47;5008483;28;20107;-71
2023/03/12 01:02:38;;;;;;;5.55;1.85;;;;;;;-0.99;100.00;100451.03;5024343;28;20520;-71
2023/03/12 01:05:04;;;;;;;;;;;;;;;-0.94;100.00;100463.84;5007948;28;20034;-71
2023/03/12 01:07:30;;;;;;;6.82;1.80;;;;;;;-0.97;100.00;100462.25;5023783;28;19999;-74
2023/03/12 01:09:55;;;;;;;10.20;3.88;;;;;;;-0.99;100.00;100458.88;4989513;28;20062;-71
2023/03/12 01:12:20;;;;;;;17.42;2.53;;;;;;;-1.04;100.00;100460.13;5024021;28;20902;-71
2023/03/12 01:14:46;;;;;;;7.00;2.25;;;;;;;-1.08;100.00;100454.22;5024009;28;20883;-73
2023/03/12 01:17:11;;;;;;;5.90;2.20;;;;;;;-1.17;100.00;100450.41;5007330;28;20509;-75
2023/03/12 01:19:37;;;;;;;14.90;3.22;;;;;;;-1.11;100.00;100454.41;5006946;28;20033;-74
2023/03/12 01:22:03;;;;;;;7.97;2.05;;;;;;;-1.08;100.00;100464.69;5007195;28;20687;-73
2023/03/12 01:24:28;;;;;;;5.65;2.40;;;;;;;-1.21;100.00;100461.16;5007424;28;20046;-74
2023/03/12 01:26:53;;;;;;;9.55;2.58;;;;;;;-1.20;100.00;100468.09;5023607;28;20048;-71
2023/03/12 01:29:19;;;;;;;7.63;2.25;;;;;;;-1.27;100.00;100465.81;5023236;28;20492;-71
2023/03/12 01:31:44;;;;;;;9.60;3.20;;;;;;;-1.32;100.00;100464.44;5006861;28;20046;-70
2023/03/12 01:34:10;;;;;;;8.00;2.20;;;;;;;-1.27;100.00;100478.09;5007133;28;20163;-70
2023/03/12 01:36:36;;;;;;;4.20;1.95;;;;;;;-1.22;100.00;100480.44;5023145;28;20095;-71
2023/03/12 01:39:02;;;;;;;19.50;2.78;;;;;;;-1.17;100.00;100473.13;5014012;28;20610;-74
2023/03/12 01:41:31;;;;;;;8.05;2.13;;;;;;;-1.20;100.00;100475.94;5022974;28;20048;-70
2023/03/12 01:43:57;;;;;;;14.75;2.60;;;;;;;-1.28;100.00;100473.78;5023384;28;20021;-74
2023/03/12 01:46:29;;;;;;;4.55;2.35;;;;;;;-1.40;100.00;100466.69;5022991;28;20461;-71
2023/03/12 01:49:11;;;;;;;12.05;2.67;;;;;;;-1.35;100.00;100462.84;5005741;28;20042;-71
2023/03/12 01:51:44;;;;;;;8.63;2.80;;;;;;;-1.38;100.00;100459.56;5023158;28;20815;-74
2023/03/12 01:54:21;;;;;;;7.38;2.17;;;;;;;-1.45;100.00;100461.72;5022847;28;20025;-71
2023/03/12 01:56:48;;;;;;;9.70;1.88;;;;;;;-1.54;100.00;100451.81;5022536;28;20083;-73
2023/03/12 01:59:20;;;;;;;6.07;2.13;;;;;;;-1.53;100.00;100454.31;5005845;28;20030;-70
2023/03/12 02:01:47;;;;;;;4.70;2.35;;;;;;;-1.63;100.00;100452.34;5022100;28;20040;-74
2023/03/12 02:04:14;;;;;;;;;;;;;;;-1.60;100.00;100452.16;5023196;28;20429;-70
2023/03/12 02:06:59;;;;;;;15.75;2.17;;;;;;;-1.61;100.00;100455.72;5022634;28;20348;-71
2023/03/12 02:09:25;;;;;;;11.10;2.13;;;;;;;-1.70;100.00;100452.72;5005873;28;20045;-71
2023/03/12 02:11:50;;;;;;;9.57;2.50;;;;;;;-1.74;100.00;100445.13;5022206;28;20038;-70
2023/03/12 02:14:17;;;;;;;5.13;1.88;;;;;;;-1.86;100.00;100443.25;5022284;28;20032;-73
2023/03/12 02:16:44;;;;;;;9.52;2.30;;;;;;;-1.98;100.00;100443.03;5022256;28;20038;-70
2023/03/12 02:19:28;;;;;;;;;;;;;;;-1.94;100.00;100438.47;5005939;28;20588;-70
2023/03/12 02:21:53;;;;;;;12.70;2.75;;;;;;;-1.97;100.00;100438.63;4989581;28;20425;-70
2023/03/12 02:24:40;;;;;;;10.23;2.00;;;;;;;-1.97;100.00;100438.63;5005773;28;20140;-71
2023/03/12 02:27:10;;;;;;;10.30;2.50;;;;;;;-2.01;100.00;100443.22;5005663;28;20088;-73
2023/03/12 02:29:39;;;;;;;7.55;1.73;;;;;;;-2.06;100.00;100431.31;5005211;28;20494;-72
2023/03/12 02:32:08;;;;;;;6.80;1.73;;;;;;;-1.98;100.00;100444.81;5005405;28;20140;-74
2023/03/12 02:34:34;;;;;;;9.85;2.05;;;;;;;-1.99;100.00;100448.34;5005419;28;20025;-74
2023/03/12 02:37:00;;;;;;;;;;;;;;;-1.99;100.00;100441.34;5005878;28;20030;-72
2023/03/12 02:39:26;;;;;;;10.63;2.55;;;;;;;-2.03;100.00;100441.63;5021612;28;19983;-70
2023/03/12 02:41:56;;;;;;;10.45;2.15;;;;;;;-2.06;100.00;100441.78;5021787;28;20037;-74
2023/03/12 02:44:25;;;;;;;10.13;2.20;;;;;;;-2.13;100.00;100441.31;5002662;28;20032;-73
2023/03/12 02:46:57;;;;;;;15.82;2.03;;;;;;;-2.16;100.00;100446.72;5004570;28;20029;-70
2023/03/12 02:49:26;;;;;;;10.85;2.05;;;;;;;-2.23;100.00;100438.38;5021475;28;20113;-72
2023/03/12 02:51:52;;;;;;;6.55;2.08;;;;;;;-2.24;100.00;100441.09;5021675;28;20210;-73
2023/03/12 02:54:18;;;;;;;;;;;;;;;-2.26;100.00;100443.78;5022363;28;20057;-70
2023/03/12 02:56:44;;;;;;;6.20;2.67;;;;;;;-2.30;100.00;100441.44;5004839;28;19971;-70
2023/03/12 02:59:12;;;;;;;8.93;1.70;;;;;;;-2.37;100.00;100435.69;5006254;28;20538;-69
2023/03/12 03:01:40;;;;;;;14.93;2.63;;;;;;;-2.42;100.00;100433.34;5021133;28;20037;-70
2023/03/12 03:04:09;;;;;;;7.47;2.40;;;;;;;-2.47;100.00;100431.94;5021342;28;20053;-70
2023/03/12 03:06:36;;;;;;;4.82;1.70;;;;;;;-2.39;100.00;100429.72;5006370;28;20033;-70
2023/03/12 03:09:02;;;;;;;10.65;1.73;;;;;;;-2.35;100.00;100433.84;5020623;28;20052;-71
2023/03/12 03:11:28;;;;;;;8.02;1.77;;;;;;;-2.35;100.00;100439.06;5021718;28;20026;-70
2023/03/12 03:13:54;;;;;;;11.00;2.53;;;;;;;-2.36;100.00;100437.41;5020833;28;20048;-69
2023/03/12 03:16:20;;;;;;;14.50;2.05;;;;;;;-2.39;100.00;100443.66;5021422;28;20026;-70
2023/03/12 03:18:46;;;;;;;4.68;1.30;;;;;;;-2.39;100.00;100443.66;5020866;28;20029;-72
2023/03/12 03:21:15;;;;;;;6.03;1.80;;;;;;;-2.37;100.00;100436.53;5004747;28;20034;-71
2023/03/12 03:23:43;;;;;;;5.35;1.77;;;;;;;-2.31;100.00;100445.00;5004864;28;20201;-71
2023/03/12 03:26:09;;;;;;;6.25;1.45;;;;;;;-2.32;100.00;100441.50;5021213;28;20025;-70
2023/03/12 03:28:34;;;;;;;9.13;2.35;;;;;;;-2.29;100.00;100440.53;5005514;28;20041;-72
2023/03/12 03:31:00;;;;;;;5.30;1.70;;;;;;;-2.27;100.00;100436.88;5004742;28;20034;-74
2023/03/12 03:33:31;;;;;;;12.95;1.63;;;;;;;-2.28;100.00;100440.41;5020818;28;20026;-74
2023/03/12 03:35:58;;;;;;;4.82;1.45;;;;;;;-2.23;100.00;100446.22;5020027;28;20038;-70
2023/03/12 03:38:26;;;;;;;5.88;1.48;;;;;;;-2.20;100.00;100456.53;5020369;28;20088;-70
2023/03/12 03:40:52;;;;;;;4.00;1.58;;;;;;;-2.15;100.00;100446.63;5004016;28;20038;-72
2023/03/12 03:43:18;;;;;;;15.82;2.08;;;;;;;-2.13;100.00;100455.22;5021213;28;20036;-73
2023/03/12 03:45:44;;;;;;;2.60;1.35;;;;;;;-2.06;100.00;100449.63;5004282;28;20045;-71
2023/03/12 03:48:12;;;;;;;8.82;1.75;;;;;;;-2.13;100.00;100450.00;5020732;28;20053;-72
2023/03/12 03:50:39;;;;;;;5.28;1.88;;;;;;;-2.07;100.00;100458.41;5003768;28;20041;-71
2023/03/12 03:53:07;;;;;;;8.48;1.83;;;;;;;-2.09;100.00;100455.03;5019774;28;20076;-70
2023/03/12 03:55:36;;;;;;;6.57;1.80;;;;;;;-2.15;100.00;100459.72;5004922;28;20487;-71
2023/03/12 03:58:02;;;;;;;4.55;1.33;;;;;;;-2.06;100.00;100462.72;5003297;28;20049;-76
2023/03/12 04:00:28;;;;;;;11.00;1.73;;;;;;;-2.23;100.00;100459.28;5004810;28;20130;-72
2023/03/12 04:02:54;;;;;;;2.60;2.20;;;;;;;-2.27;100.00;100447.34;5014811;28;20041;-69
2023/03/12 04:05:20;;;;;;;11.00;2.10;;;;;;;-2.21;100.00;100457.44;5003715;28;20037;-70
2023/03/12 04:07:47;;;;;;;11.35;2.60;;;;;;;-2.16;100.00;100455.38;5003145;28;20048;-71
2023/03/12 04:10:14;;;;;;;7.93;3.10;;;;;;;-2.09;100.00;100460.28;5003636;28;20383;-70
2023/03/12 04:12:39;;;;;;;6.47;1.88;;;;;;;-2.12;100.00;100454.28;5003692;28;20026;-70
2023/03/12 04:15:05;;;;;;;5.65;2.30;;;;;;;-2.16;100.00;100447.53;5004512;28;20550;-71
2023/03/12 04:17:31;;;;;;;10.27;1.92;;;;;;;-2.21;100.00;100446.13;5003616;28;20462;-73
2023/03/12 04:19:56;;;;;;;8.43;2.10;;;;;;;-2.20;100.00;100447.81;5002899;28;20037;-76
2023/03/12 04:22:22;;;;;;;8.10;2.60;;;;;;;-2.29;100.00;100443.13;5003618;28;20398;-72
2023/03/12 04:24:47;;;;;;;7.93;2.08;;;;;;;-2.14;100.00;100440.44;5003274;28;20042;-72
2023/03/12 04:27:13;;;;;;;7.85;2.75;;;;;;;-2.15;100.00;100440.56;5006405;28;20494;-74
2023/03/12 04:29:39;;;;;;;8.27;3.05;;;;;;;-2.22;100.00;100437.44;5011892;28;20041;-70
2023/03/12 04:32:06;;;;;;;7.88;1.88;;;;;;;-2.28;100.00;100448.25;5007012;28;20506;-71
2023/03/12 04:34:31;;;;;;;4.88;2.03;;;;;;;-2.33;100.00;100440.66;5007421;28;20022;-74
2023/03/12 04:37:02;;;;;;;8.20;2.20;;;;;;;-2.38;100.00;100432.25;5017439;28;20034;-70
2023/03/12 04:39:28;;;;;;;13.98;1.98;;;;;;;-2.47;100.00;100438.00;5006778;28;20025;-72
2023/03/12 04:41:54;;;;;;;4.32;1.70;;;;;;;-2.48;100.00;100432.84;5006924;28;20048;-72
2023/03/12 04:44:19;;;;;;;7.68;2.20;;;;;;;-2.58;100.00;100425.53;5007378;28;20030;-71
2023/03/12 04:46:45;;;;;;;8.88;2.05;;;;;;;-2.67;100.00;100415.63;5019243;28;20582;-69
2023/03/12 04:49:14;;;;;;;10.15;2.63;;;;;;;-2.61;100.00;100424.88;5009537;28;20041;-70
2023/03/12 04:51:40;;;;;;;8.70;3.15;;;;;;;-2.44;100.00;100434.38;5007036;28;20081;-69
2023/03/12 04:54:06;;;;;;;19.50;3.95;;;;;;;-2.34;100.00;100441.63;5006841;28;20068;-74
2023/03/12 04:56:33;;;;;;;10.15;2.67;;;;;;;-2.30;100.00;100441.44;5006769;28;20029;-69
2023/03/12 04:58:58;;;;;;;12.55;4.30;;;;;;;-2.26;100.00;100450.78;5006561;28;20029;-70
2023/03/12 05:01:28;;;;;;;11.25;3.10;;;;;;;-2.23;100.00;100446.22;5006799;28;20158;-69
2023/03/12 05:03:53;;;;;;;12.95;3.60;;;;;;;-2.21;100.00;100452.19;4990028;28;20037;-72
2023/03/12 05:06:20;;;;;;;12.77;3.70;;;;;;;-2.23;100.00;100448.00;4990624;28;20509;-71
2023/03/12 05:08:46;;;;;;;7.75;3.30;;;;;;;-2.25;100.00;100450.69;5006218;28;20076;-72
2023/03/12 05:11:13;;;;;;;12.95;4.60;;;;;;;-2.29;100.00;100458.81;4990282;28;20028;-74
2023/03/12 05:13:38;;;;;;;14.10;4.88;;;;;;;-2.33;100.00;100456.34;5007829;28;20026;-75
2023/03/12 05:16:04;;;;;;;10.48;4.28;;;;;;;-2.29;100.00;100450.97;5006507;28;20034;-72
2023/03/12 05:18:30;;;;;;;;;;;;;;;-2.25;100.00;100461.16;5006110;28;20422;-72
2023/03/12 05:21:04;;;;;;;10.15;3.92;;;;;;;-2.26;100.00;100461.25;5006246;28;19917;-72
2023/03/12 05:23:30;;;;;;;10.85;4.60;;;;;;;-2.27;100.00;100457.81;5006269;28;20052;-72
2023/03/12 05:25:57;;;;;;;18.48;5.75;;;;;;;-2.26;100.00;100458.63;5006102;28;20505;-74
2023/03/12 05:28:26;;;;;;;13.93;5.55;;;;;;;-2.20;100.00;100473.97;5005710;28;20042;-75
2023/03/12 05:30:55;;;;;;;21.52;6.38;;;;;;;-2.22;100.00;100465.38;5005743;28;20037;-75
2023/03/12 05:33:22;;;;;;;21.15;6.95;;;;;;;-2.18;100.00;100466.88;5006082;28;20040;-75
2023/03/12 05:35:48;;;;;;;26.25;8.15;;;;;;;-2.15;100.00;100477.19;5006095;28;20022;-72
2023/03/12 05:38:13;;;;;;;23.45;8.50;;;;;;;-2.17;100.00;100469.41;5005578;28;20030;-73
2023/03/12 05:40:39;;;;;;;20.02;7.90;;;;;;;-2.14;100.00;100478.84;5005651;28;20517;-74
2023/03/12 05:43:04;;;;;;;19.13;8.50;;;;;;;-2.14;100.00;100482.31;5015545;28;20125;-75
2023/03/12 05:45:31;;;;;;;18.25;8.15;;;;;;;-2.15;100.00;100485.88;5005678;28;20022;-72
2023/03/12 05:47:58;;;;;;;22.13;9.40;;;;;;;-2.10;100.00;100490.84;5005395;28;20033;-72
2023/03/12 05:50:24;;;;;;;19.77;8.60;;;;;;;-2.20;100.00;100485.28;5005517;28;20088;-72
2023/03/12 05:52:50;;;;;;;18.45;8.10;;;;;;;-2.17;100.00;100486.88;5005648;28;20034;-72
2023/03/12 05:55:17;;;;;;;24.65;8.70;;;;;;;-2.15;100.00;100495.50;5005573;28;20132;-76
2023/03/12 05:57:43;;;;;;;22.98;8.85;;;;;;;-2.17;100.00;100497.34;5015399;28;20030;-72
2023/03/12 06:00:11;;;;;;;19.20;9.00;;;;;;;-2.00;100.00;100502.44;5017126;28;20255;-74
2023/03/12 06:02:47;;;;;;;28.00;8.85;;;;;;;-2.00;100.00;100504.22;4988660;28;20533;-73
2023/03/12 06:05:12;;;;;;;59.55;9.57;;;;;;;-2.23;100.00;100498.53;5006296;28;20057;-71
2023/03/12 06:07:38;;;;;;;;;;;;;;;-2.09;100.00;100509.97;5010899;28;20065;-72
2023/03/12 06:10:05;;;;;;;27.13;10.05;;;;;;;-2.13;100.00;100498.88;5006993;28;19971;-73
2023/03/12 06:12:30;;;;;;;46.38;11.93;;;;;;;-2.11;100.00;100502.22;5022326;28;20104;-73
2023/03/12 06:14:56;;;;;;;61.60;13.05;;;;;;;-2.12;100.00;100497.91;5004905;28;20034;-73
2023/03/12 06:17:22;;;;;;;86.03;15.45;;;;;;;-2.13;100.00;100499.69;5006794;28;20113;-74
2023/03/12 06:19:51;;;;;;;91.72;15.05;;;;;;;-2.17;100.00;100494.72;5010376;28;20121;-72
2023/03/12 06:22:17;;;;;;;124.00;17.17;;;;;;;-2.09;100.00;100502.13;5022225;28;20125;-72
2023/03/12 06:24:46;;;;;;;56.13;17.42;;;;;;;-2.09;100.00;100504.75;5005520;28;20120;-72
2023/03/12 06:27:13;;;;;;;52.20;14.45;;;;;;;-2.12;100.00;100498.75;5021783;28;20081;-72
2023/03/12 06:29:39;;;;;;;74.63;15.68;;;;;;;-2.03;100.00;100504.41;5006264;28;20503;-72
2023/03/12 06:32:05;;;;;;;85.80;15.20;;;;;;;-1.93;100.00;100511.63;5020720;28;20042;-74
2023/03/12 06:34:30;;;;;;;54.85;14.57;;;;;;;-1.83;100.00;100506.69;5006039;28;20034;-75
2023/03/12 06:36:55;;;;;;;78.07;15.68;;;;;;;-1.90;100.00;100505.38;5006058;28;20038;-73
2023/03/12 06:39:21;;;;;;;54.72;14.00;;;;;;;-1.89;100.00;100508.84;5005965;28;20113;-76
2023/03/12 06:41:46;;;;;;;41.08;13.98;;;;;;;-1.83;100.00;100511.94;5001878;28;20046;-77
2023/03/12 06:44:12;;;;;;;68.07;15.65;;;;;;;-1.81;100.00;100502.22;5005599;28;20037;-72
2023/03/12 06:46:37;;;;;;;102.60;15.40;;;;;;;-1.68;100.00;100509.38;5005493;28;20120;-71
2023/03/12 06:49:03;;;;;;;50.97;15.65;;;;;;;-1.60;100.00;100507.13;5004466;28;20022;-74
2023/03/12 06:51:28;;;;;;;40.05;13.57;;;;;;;-1.43;100.00;100504.34;5005769;28;20738;-75
2023/03/12 06:53:53;;;;;;;42.72;12.55;;;;;;;-1.55;100.00;100489.38;5006057;28;20053;-71
2023/03/12 06:56:19;;;;;;;45.70;13.75;;;;;;;-1.46;100.00;100495.84;5005044;28;20034;-74
2023/03/12 06:58:44;;;;;;;55.80;14.00;;;;;;;-1.83;100.00;100482.31;5005263;28;20486;-72
2023/03/12 07:01:10;;;;;;;52.33;14.65;;;;;;;-1.80;100.00;100477.75;5020731;28;20080;-72
2023/03/12 07:03:36;;;;;;;65.68;14.30;;;;;;;-1.66;100.00;100489.16;5006115;28;20358;-72
2023/03/12 07:06:01;;;;;;;60.60;15.05;;;;;;;-1.50;100.00;100489.94;5006209;28;20041;-77
2023/03/12 07:08:29;;;;;;;36.95;13.18;;;;;;;-1.54;100.00;100486.69;5020424;28;20441;-74
2023/03/12 07:10:55;;;;;;;72.38;13.50;;;;;;;-1.45;100.00;100508.88;5015826;28;20038;-72
2023/03/12 07:13:21;;;;;;;34.08;13.27;;;;;;;-1.49;100.00;100496.88;5005827;28;20025;-79
2023/03/12 07:15:46;;;;;;;41.53;13.60;;;;;;;-1.37;100.00;100498.75;5016251;28;20048;-76
2023/03/12 07:18:12;;;;;;;52.83;16.17;;;;;;;-1.28;100.00;100498.22;5004401;28;20030;-76
2023/03/12 07:20:40;;;;;;;44.58;14.40;;;;;;;-1.07;100.00;100503.09;5013523;28;20498;-76
2023/03/12 07:23:06;;;;;;;61.08;14.73;;;;;;;-0.96;100.00;100497.16;5004493;28;20045;-72
2023/03/12 07:25:36;;;;;;;54.33;12.40;;;;;;;-1.07;100.00;100498.69;5005397;28;20495;-75
2023/03/12 07:28:02;;;;;;;49.20;13.27;;;;;;;-1.19;100.00;100485.50;5004916;28;20509;-77
2023/03/12 07:30:32;;;;;;;27.45;10.02;;;;;;;-0.91;100.00;100489.88;5005741;28;20038;-72
2023/03/12 07:32:57;;;;;;;38.53;10.82;;;;;;;-1.29;100.00;100472.09;5005859;28;20132;-72
2023/03/12 07:35:23;;;;;;;55.80;13.95;;;;;;;-1.35;100.00;100475.94;5006130;28;20165;-72
2023/03/12 07:37:48;;;;;;;29.92;10.90;;;;;;;-1.36;100.00;100462.94;5004637;28;20030;-74
2023/03/12 07:40:13;;;;;;;30.00;11.15;;;;;;;-1.32;100.00;100464.44;5020598;28;20552;-72
2023/03/12 07:42:39;;;;;;;24.65;10.45;;;;;;;-1.25;100.00;100470.16;5005053;28;20075;-74
2023/03/12 07:45:06;;;;;;;26.20;10.18;;;;;;;-1.09;100.00;100482.19;5008747;28;20117;-73
2023/03/12 07:47:32;;;;;;;23.15;10.35;;;;;;;-0.99;100.00;100479.84;5005369;28;20141;-74
2023/03/12 07:49:57;;;;;;;35.75;12.00;;;;;;;-1.03;100.00;100467.03;5005295;28;20040;-72
2023/03/12 07:52:23;;;;;;;36.65;10.82;;;;;;;-1.04;100.00;100466.19;5006232;28;20046;-74
2023/03/12 07:54:48;;;;;;;46.38;13.18;;;;;;;-0.93;100.00;100474.25;5019325;28;20108;-75
2023/03/12 07:57:14;;;;;;;34.72;11.98;;;;;;;-1.01;100.00;100470.41;5005602;28;20048;-73
2023/03/12 07:59:39;;;;;;;34.50;10.18;;;;;;;-0.87;100.00;100479.13;5020787;28;20038;-74
2023/03/12 08:02:04;;;;;;;39.22;11.93;;;;;;;-1.02;100.00;100479.22;5008084;28;20040;-73
2023/03/12 08:04:30;;;;;;;30.67;11.43;;;;;;;-1.14;100.00;100481.66;5009766;28;20137;-73
2023/03/12 08:06:55;;;;;;;45.47;12.55;;;;;;;-1.20;100.00;100475.94;5008217;28;20045;-74
2023/03/12 08:09:20;;;;;;;36.78;12.65;;;;;;;-1.04;100.00;100483.72;5007512;28;20036;-72
2023/03/12 08:11:46;;;;;;;32.45;12.50;;;;;;;-0.83;100.00;100495.47;5017170;28;20052;-75
2023/03/12 08:14:12;;;;;;;32.05;10.35;;;;;;;-0.89;100.00;100491.47;5008606;28;20482;-74
2023/03/12 08:16:37;;;;;;;30.48;12.38;;;;;;;-0.84;100.00;100483.31;5013555;28;20038;-72
2023/03/12 08:19:02;;;;;;;37.88;12.77;;;;;;;-0.86;100.00;100493.88;5007139;28;20026;-72
2023/03/12 08:21:28;;;;;;;28.87;12.00;;;;;;;-0.85;100.00;100495.56;5008784;28;20064;-72
2023/03/12 08:23:53;;;;;;;93.43;15.13;;;;;;;-0.82;100.00;100491.94;5007322;28;20296;-76
2023/03/12 08:26:18;;;;;;;35.75;13.02;;;;;;;-0.88;100.00;100492.31;5007133;28;20049;-74
2023/03/12 08:28:44;;;;;;;34.53;14.25;;;;;;;-0.89;100.00;100485.34;5008010;28;20045;-74
2023/03/12 08:31:09;;;;;;;37.80;13.35;;;;;;;-0.85;100.00;100494.72;4991542;28;20406;-72
2023/03/12 08:33:35;;;;;;;32.80;14.32;;;;;;;-0.69;100.00;100505.09;5008457;28;20033;-75
2023/03/12 08:36:01;;;;;;;44.85;13.95;;;;;;;-0.69;100.00;100499.84;5008585;28;20038;-77
2023/03/12 08:38:27;;;;;;;55.40;17.35;;;;;;;-0.67;100.00;100500.59;5006989;28;20545;-76
2023/03/12 08:40:59;;;;;;;39.40;15.73;;;;;;;-0.81;100.00;100493.59;5006733;28;20037;-73
2023/03/12 08:43:25;;;;;;;38.90;14.32;;;;;;;-0.78;100.00;100487.31;5006820;28;20038;-74
2023/03/12 08:45:59;;;;;;;48.05;14.85;;;;;;;-0.70;100.00;100487.69;5007860;28;20092;-78
2023/03/12 08:48:25;;;;;;;36.60;14.10;;;;;;;-0.69;100.00;100492.81;5007156;28;20088;-74
2023/03/12 08:50:50;;;;;;;35.83;14.40;;;;;;;-0.61;100.00;100489.72;5008096;28;20561;-74
2023/03/12 08:53:16;;;;;;;42.28;16.98;;;;;;;-0.56;100.00;100484.19;5006718;28;20056;-76
2023/03/12 08:55:42;;;;;;;36.88;16.65;;;;;;;-0.26;100.00;100479.63;4999137;28;20471;-73
2023/03/12 08:58:08;;;;;;;36.97;16.30;;;;;;;-0.18;100.00;100468.59;5007267;28;20033;-73
2023/03/12 09:00:33;;;;;;;58.90;18.60;;;;;;;-0.26;100.00;100469.13;5007486;28;20458;-72
2023/03/12 09:02:59;;;;;;;41.63;16.27;;;;;;;-0.32;100.00;100463.44;5009001;28;20032;-74
2023/03/12 09:05:26;;;;;;;34.42;14.05;;;;;;;-0.11;100.00;100456.78;5009406;28;20033;-73
2023/03/12 09:07:52;;;;;;;44.75;15.60;;;;;;;-0.02;100.00;100456.16;5008492;28;20558;-73
2023/03/12 09:10:17;;;;;;;35.70;15.63;;;;;;;-0.01;100.00;100447.34;5007498;28;20110;-74
2023/03/12 09:12:43;;;;;;;50.65;18.85;;;;;;;-0.09;100.00;100444.38;5004906;28;20376;-73
2023/03/12 09:15:09;;;;;;;39.50;16.65;;;;;;;-0.21;100.00;100439.97;5007985;28;20026;-73
2023/03/12 09:17:36;;;;;;;45.28;18.85;;;;;;;-0.17;100.00;100440.59;5009012;28;20622;-74
2023/03/12 09:20:05;;;;;;;45.90;18.88;;;;;;;-0.20;100.00;100440.78;5008434;28;20109;-78
2023/03/12 09:22:31;;;;;;;51.13;19.33;;;;;;;-0.05;100.00;100438.00;5007976;28;20930;-78
2023/03/12 09:24:56;;;;;;;46.33;18.55;;;;;;;0.07;100.00;100427.59;5025288;28;20132;-77
2023/03/12 09:27:21;;;;;;;44.60;17.17;;;;;;;0.13;100.00;100427.19;5009452;28;20467;-76
2023/03/12 09:29:48;;;;;;;48.00;17.02;;;;;;;0.00;100.00;100411.44;5008594;28;20057;-73
2023/03/12 09:32:15;;;;;;;45.08;18.95;;;;;;;-0.13;100.00;100395.66;5009130;28;20061;-74
2023/03/12 09:34:41;;;;;;;48.55;17.55;;;;;;;-0.02;100.00;100413.34;5004368;28;20048;-73
2023/03/12 09:37:06;;;;;;;53.53;18.08;;;;;;;0.01;100.00;100407.03;5007119;28;20041;-77
2023/03/12 09:39:31;;;;;;;53.10;18.05;;;;;;;0.31;100.00;100418.09;5027234;28;20031;-75
2023/03/12 09:41:57;;;;;;;47.67;20.07;;;;;;;0.19;100.00;100403.16;5011785;28;20120;-75
2023/03/12 09:44:47;;;;;;;54.77;21.90;;;;;;;0.24;100.00;100402.84;5007229;28;20327;-75
2023/03/12 09:47:25;;;;;;;48.08;19.20;;;;;;;0.55;100.00;100409.47;4965870;28;20274;-74
2023/03/12 09:49:58;;;;;;;63.25;23.20;;;;;;;0.36;100.00;100387.09;5044430;22;20061;-75
2023/03/12 09:52:57;;;;;;;59.85;22.00;;;;;;;0.53;100.00;100375.41;5021347;28;20032;-74
2023/03/12 09:55:23;;;;;;;59.15;21.88;;;;;;;0.59;100.00;100377.63;5040380;28;20029;-74
2023/03/12 09:57:50;;;;;;;59.13;21.65;;;;;;;1.06;100.00;100383.09;5039441;28;20053;-74
2023/03/12 10:00:19;;;;;;;47.30;19.10;;;;;;;1.05;100.00;100368.25;5037868;28;20032;-76
2023/03/12 10:03:26;;;;;;;51.50;19.27;;;;;;;1.16;100.00;100360.41;5022289;28;20124;-76
2023/03/12 10:06:05;;;;;;;51.38;19.58;;;;;;;1.15;100.00;100324.56;5003950;28;20068;-76
2023/03/12 10:08:37;;;;;;;50.05;18.75;;;;;;;1.60;100.00;100327.38;4985376;28;20136;-74
2023/03/12 10:11:22;;;;;;;55.20;21.42;;;;;;;1.86;100.00;100332.47;5003927;28;20040;-76
2023/03/12 10:14:15;;;;;;;59.80;22.45;;;;;;;2.03;100.00;100315.38;5003998;28;20518;-74
2023/03/12 10:16:53;;;;;;;48.55;22.42;;;;;;;1.99;100.00;100306.88;4980910;28;20669;-78
2023/03/12 10:19:37;;;;;;;52.15;21.15;;;;;;;1.60;100.00;100280.00;5000932;28;20099;-74
2023/03/12 10:22:18;;;;;;;50.42;20.10;;;;;;;1.54;100.00;100263.84;5000561;28;20108;-74
2023/03/12 10:25:03;;;;;;;54.35;22.77;;;;;;;1.74;100.00;100264.97;4987303;28;20048;-76
2023/03/12 10:27:30;;;;;;;;;;;;;;;1.97;100.00;100277.19;5003968;28;20042;-76
2023/03/12 10:29:56;;;;;;;52.45;21.67;;;;;;;1.94;100.00;100261.59;5003505;28;20074;-78
2023/03/12 10:32:28;;;;;;;56.25;20.35;;;;;;;2.04;100.00;100254.69;4982989;28;20048;-75
2023/03/12 10:34:59;;;;;;;50.53;20.38;;;;;;;2.48;100.00;100242.44;5000561;28;20074;-74
2023/03/12 10:37:37;;;;;;;43.75;20.50;;;;;;;2.94;100.00;100225.50;4986609;28;20545;-74
2023/03/12 10:40:04;;;;;;;36.78;16.35;;;;;;;3.15;100.00;100212.34;5002149;28;20049;-73
2023/03/12 10:42:30;;;;;;;44.42;19.50;;;;;;;2.99;100.00;100188.22;5025249;28;20124;-76
2023/03/12 10:45:17;;;;;;;28.75;13.85;;;;;;;2.69;100.00;100142.34;5024709;28;20037;-80
2023/03/12 10:47:49;;;;;;;33.92;15.00;;;;;;;2.52;100.00;100120.00;5037686;28;20478;-76
2023/03/12 10:50:26;;;;;;;31.80;14.82;;;;;;;2.72;100.00;100125.44;5037825;28;20032;-74
2023/03/12 10:53:13;;;;;;;28.63;13.30;;;;;;;3.03;100.00;100125.53;5025941;28;20048;-75
2023/03/12 10:55:38;;;;;;;24.67;12.05;;;;;;;3.05;100.00;100103.31;5035881;28;20045;-76
2023/03/12 10:58:04;;;;;;;23.90;12.00;;;;;;;3.18;100.00;100087.28;5043551;28;20013;-77
2023/03/12 11:00:31;;;;;;;26.88;12.52;;;;;;;3.32;100.00;100072.91;5019699;28;20078;-74
2023/03/12 11:03:02;;;;;;;21.55;9.88;;;;;;;3.15;100.00;100032.16;5024710;28;20525;-75
2023/03/12 11:05:33;;;;;;;20.25;8.95;;;;;;;3.44;100.00;100019.09;5035579;28;20029;-74
2023/03/12 11:08:00;;;;;;;16.77;9.52;;;;;;;3.18;100.00;99971.22;5042400;28;20067;-74
2023/03/12 11:10:32;;;;;;;22.08;10.95;;;;;;;3.02;100.00;99961.19;5035494;28;20020;-77
2023/03/12 11:13:03;;;;;;;22.25;10.90;;;;;;;3.31;100.00;99977.09;5024581;28;20042;-74
2023/03/12 11:15:35;;;;;;;17.48;8.30;;;;;;;3.73;100.00;99995.38;5039042;28;20477;-74